sensor_id;sensor_type;location;lat;lon;timestamp;temperature;humidity
79500;SHT31;76397;53.172;18.140;2024-03-06T19:16:13;1.90;75.09
79500;SHT31;76397;53.172;18.140;2024-03-06T19:18:41;1.88;75.00
79500;SHT31;76397;53.172;18.140;2024-03-06T19:21:08;1.85;74.89
79500;SHT31;76397;53.172;18.140;2024-03-06T19:23:35;1.88;74.87
79500;SHT31;76397;53.172;18.140;2024-03-06T19:26:01;1.92;74.67
79500;SHT31;76397;53.172;18.140;2024-03-06T19:28:28;1.97;74.46
79500;SHT31;76397;53.172;18.140;2024-03-06T19:30:55;2.04;74.29
79500;SHT31;76397;53.172;18.140;2024-03-06T19:33:26;2.13;74.07
79500;SHT31;76397;53.172;18.140;2024-03-06T19:35:53;2.17;73.86
79500;SHT31;76397;53.172;18.140;2024-03-06T19:38:19;2.18;73.69
79500;SHT31;76397;53.172;18.140;2024-03-06T19:40:46;2.14;73.63
79500;SHT31;76397;53.172;18.140;2024-03-06T19:43:13;2.09;73.57
79500;SHT31;76397;53.172;18.140;2024-03-06T19:45:40;2.02;73.57
79500;SHT31;76397;53.172;18.140;2024-03-06T19:48:07;1.95;73.45
79500;SHT31;76397;53.172;18.140;2024-03-06T19:50:33;1.88;73.41
79500;SHT31;76397;53.172;18.140;2024-03-06T19:53:00;1.82;73.41
79500;SHT31;76397;53.172;18.140;2024-03-06T19:55:27;1.75;73.38
79500;SHT31;76397;53.172;18.140;2024-03-06T19:57:56;1.71;73.38
79500;SHT31;76397;53.172;18.140;2024-03-06T20:00:24;1.65;73.42
79500;SHT31;76397;53.172;18.140;2024-03-06T20:02:51;1.61;73.41
79500;SHT31;76397;53.172;18.140;2024-03-06T20:05:18;1.61;73.41
79500;SHT31;76397;53.172;18.140;2024-03-06T20:07:45;1.61;73.46
79500;SHT31;76397;53.172;18.140;2024-03-06T20:10:12;1.63;73.45
79500;SHT31;76397;53.172;18.140;2024-03-06T20:12:39;1.62;73.50
79500;SHT31;76397;53.172;18.140;2024-03-06T20:15:07;1.61;73.50
79500;SHT31;76397;53.172;18.140;2024-03-06T20:17:35;1.56;73.49
79500;SHT31;76397;53.172;18.140;2024-03-06T20:20:01;1.48;73.58
79500;SHT31;76397;53.172;18.140;2024-03-06T20:22:29;1.39;73.80
79500;SHT31;76397;53.172;18.140;2024-03-06T20:24:56;1.28;73.87
79500;SHT31;76397;53.172;18.140;2024-03-06T20:27:23;1.19;74.09
79500;SHT31;76397;53.172;18.140;2024-03-06T20:29:51;1.08;74.29
79500;SHT31;76397;53.172;18.140;2024-03-06T20:32:18;1.01;74.38
79500;SHT31;76397;53.172;18.140;2024-03-06T20:34:45;0.97;74.53
79500;SHT31;76397;53.172;18.140;2024-03-06T20:37:11;0.88;74.66
79500;SHT31;76397;53.172;18.140;2024-03-06T20:39:38;0.79;74.89
79500;SHT31;76397;53.172;18.140;2024-03-06T20:42:05;0.72;75.02
79500;SHT31;76397;53.172;18.140;2024-03-06T20:44:32;0.71;75.03
79500;SHT31;76397;53.172;18.140;2024-03-06T20:46:59;0.70;75.14
79500;SHT31;76397;53.172;18.140;2024-03-06T20:49:27;0.74;75.12
79500;SHT31;76397;53.172;18.140;2024-03-06T20:51:54;0.79;75.12
79500;SHT31;76397;53.172;18.140;2024-03-06T20:54:21;0.82;74.98
79500;SHT31;76397;53.172;18.140;2024-03-06T20:56:47;0.80;74.92
79500;SHT31;76397;53.172;18.140;2024-03-06T20:59:14;0.75;75.00
79500;SHT31;76397;53.172;18.140;2024-03-06T21:01:42;0.64;75.20
79500;SHT31;76397;53.172;18.140;2024-03-06T21:04:11;0.57;75.52
79500;SHT31;76397;53.172;18.140;2024-03-06T21:06:40;0.57;75.62
79500;SHT31;76397;53.172;18.140;2024-03-06T21:09:07;0.57;75.76
79500;SHT31;76397;53.172;18.140;2024-03-06T21:11:34;0.54;75.90
79500;SHT31;76397;53.172;18.140;2024-03-06T21:14:02;0.48;75.99
79500;SHT31;76397;53.172;18.140;2024-03-06T21:16:31;0.52;76.20
79500;SHT31;76397;53.172;18.140;2024-03-06T21:18:58;0.61;76.19
79500;SHT31;76397;53.172;18.140;2024-03-06T21:21:25;0.71;76.01
79500;SHT31;76397;53.172;18.140;2024-03-06T21:23:52;0.75;75.98
79500;SHT31;76397;53.172;18.140;2024-03-06T21:26:19;0.79;75.92
79500;SHT31;76397;53.172;18.140;2024-03-06T21:28:45;0.83;75.99
79500;SHT31;76397;53.172;18.140;2024-03-06T21:31:12;0.86;75.94
79500;SHT31;76397;53.172;18.140;2024-03-06T21:33:39;0.86;75.83
79500;SHT31;76397;53.172;18.140;2024-03-06T21:36:06;0.82;75.83
79500;SHT31;76397;53.172;18.140;2024-03-06T21:38:33;0.73;75.97
79500;SHT31;76397;53.172;18.140;2024-03-06T21:41:01;0.66;76.19
79500;SHT31;76397;53.172;18.140;2024-03-06T21:43:28;0.62;76.30
79500;SHT31;76397;53.172;18.140;2024-03-06T21:45:54;0.60;76.48
79500;SHT31;76397;53.172;18.140;2024-03-06T21:48:22;0.63;76.78
79500;SHT31;76397;53.172;18.140;2024-03-06T21:50:48;0.71;76.82
79500;SHT31;76397;53.172;18.140;2024-03-06T21:53:16;0.79;76.77
79500;SHT31;76397;53.172;18.140;2024-03-06T21:55:43;0.83;76.71
79500;SHT31;76397;53.172;18.140;2024-03-06T21:58:10;0.87;76.57
79500;SHT31;76397;53.172;18.140;2024-03-06T22:00:36;0.88;76.34
79500;SHT31;76397;53.172;18.140;2024-03-06T22:03:03;0.88;76.25
79500;SHT31;76397;53.172;18.140;2024-03-06T22:05:31;0.88;76.10
79500;SHT31;76397;53.172;18.140;2024-03-06T22:07:58;0.83;76.08
79500;SHT31;76397;53.172;18.140;2024-03-06T22:10:25;0.81;76.01
79500;SHT31;76397;53.172;18.140;2024-03-06T22:12:52;0.77;76.07
79500;SHT31;76397;53.172;18.140;2024-03-06T22:15:19;0.69;76.11
79500;SHT31;76397;53.172;18.140;2024-03-06T22:17:45;0.61;76.21
79500;SHT31;76397;53.172;18.140;2024-03-06T22:20:14;0.55;76.35
79500;SHT31;76397;53.172;18.140;2024-03-06T22:22:41;0.55;76.40
79500;SHT31;76397;53.172;18.140;2024-03-06T22:25:07;0.57;76.35
79500;SHT31;76397;53.172;18.140;2024-03-06T22:27:35;0.59;76.41
79500;SHT31;76397;53.172;18.140;2024-03-06T22:30:05;0.59;76.45
79500;SHT31;76397;53.172;18.140;2024-03-06T22:32:33;0.60;76.47
79500;SHT31;76397;53.172;18.140;2024-03-06T22:35:00;0.61;76.37
79500;SHT31;76397;53.172;18.140;2024-03-06T22:37:26;0.60;76.31
79500;SHT31;76397;53.172;18.140;2024-03-06T22:39:53;0.52;76.47
79500;SHT31;76397;53.172;18.140;2024-03-06T22:42:21;0.44;76.69
79500;SHT31;76397;53.172;18.140;2024-03-06T22:44:47;0.35;76.82
79500;SHT31;76397;53.172;18.140;2024-03-06T22:47:14;0.29;76.98
79500;SHT31;76397;53.172;18.140;2024-03-06T22:49:41;0.20;77.04
79500;SHT31;76397;53.172;18.140;2024-03-06T22:52:07;0.12;77.12
79500;SHT31;76397;53.172;18.140;2024-03-06T22:54:35;0.02;77.27
79500;SHT31;76397;53.172;18.140;2024-03-06T22:57:05;-0.04;77.54
79500;SHT31;76397;53.172;18.140;2024-03-06T22:59:32;-0.08;77.70
79500;SHT31;76397;53.172;18.140;2024-03-06T23:01:59;-0.07;77.78
79500;SHT31;76397;53.172;18.140;2024-03-06T23:04:26;-0.07;77.78
79500;SHT31;76397;53.172;18.140;2024-03-06T23:06:52;-0.09;77.84
79500;SHT31;76397;53.172;18.140;2024-03-06T23:09:21;-0.13;77.74
79500;SHT31;76397;53.172;18.140;2024-03-06T23:11:48;-0.16;77.77
79500;SHT31;76397;53.172;18.140;2024-03-06T23:14:14;-0.22;77.92
79500;SHT31;76397;53.172;18.140;2024-03-06T23:16:42;-0.30;78.07
79500;SHT31;76397;53.172;18.140;2024-03-06T23:19:09;-0.34;78.23
79500;SHT31;76397;53.172;18.140;2024-03-06T23:21:37;-0.40;78.23
79500;SHT31;76397;53.172;18.140;2024-03-06T23:24:04;-0.44;78.52
79500;SHT31;76397;53.172;18.140;2024-03-06T23:26:31;-0.45;78.84
79500;SHT31;76397;53.172;18.140;2024-03-06T23:28:58;-0.45;78.79
79500;SHT31;76397;53.172;18.140;2024-03-06T23:31:25;-0.43;78.76
79500;SHT31;76397;53.172;18.140;2024-03-06T23:33:53;-0.39;78.71
79500;SHT31;76397;53.172;18.140;2024-03-06T23:36:20;-0.33;78.79
79500;SHT31;76397;53.172;18.140;2024-03-06T23:38:47;-0.24;78.85
79500;SHT31;76397;53.172;18.140;2024-03-06T23:41:14;-0.14;78.99
79500;SHT31;76397;53.172;18.140;2024-03-06T23:43:41;-0.09;78.78
79500;SHT31;76397;53.172;18.140;2024-03-06T23:46:07;-0.08;78.63
79500;SHT31;76397;53.172;18.140;2024-03-06T23:48:34;-0.11;78.72
79500;SHT31;76397;53.172;18.140;2024-03-06T23:51:02;-0.14;78.79
79500;SHT31;76397;53.172;18.140;2024-03-06T23:53:30;-0.17;78.78
79500;SHT31;76397;53.172;18.140;2024-03-06T23:55:57;-0.26;78.88
79500;SHT31;76397;53.172;18.140;2024-03-06T23:58:23;-0.31;78.94
